Time;durP1;ratioP1;P1;durP2;ratioP2;P2;SDS_P1;SDS_P2;PMS_P1;PMS_P2;Temp;Humidity;BMP_temperature;BMP_pressure;BME280_temperature;BME280_humidity;BME280_pressure;Samples;Min_cycle;Max_cycle;Signal;HPM_P1;HPM_P2
2022/01/26 00:06:39;;;;;;;7.27;4.40;;;-1.70;99.90;;;;;;5135163;28;20469;-78
2022/01/26 00:09:07;;;;;;;7.40;4.07;;;-1.70;99.90;;;;;;5134799;28;20953;-77
2022/01/26 00:11:37;;;;;;;7.80;3.70;;;-1.80;99.90;;;;;;5134855;27;20349;-77
2022/01/26 00:14:09;;;;;;;10.40;4.67;;;-1.80;99.90;;;;;;5133222;28;20489;-77
2022/01/26 00:16:43;;;;;;;5.73;3.70;;;-1.60;99.90;;;;;;5133171;28;20250;-77
2022/01/26 00:19:14;;;;;;;5.57;3.67;;;-1.90;99.90;;;;;;5134900;28;20444;-78
2022/01/26 00:21:48;;;;;;;5.93;4.10;;;;;;;;;;5134951;28;20624;-77
2022/01/26 00:29:19;;;;;;;7.70;4.27;;;;;;;;;;5135210;28;20162;-77
2022/01/26 00:40:22;;;;;;;5.70;3.57;;;-2.00;99.90;;;;;;5134870;28;20275;-77
2022/01/26 00:42:51;;;;;;;5.87;4.03;;;;;;;;;;5137047;27;20423;-77
2022/01/26 00:45:21;;;;;;;6.27;4.03;;;-2.20;99.90;;;;;;5137210;27;20175;-77
2022/01/26 00:47:48;;;;;;;6.33;3.87;;;-1.90;99.90;;;;;;5136694;27;20241;-77
2022/01/26 00:50:15;;;;;;;9.73;4.00;;;;;;;;;;5139047;27;20499;-77
2022/01/26 00:52:44;;;;;;;12.43;3.67;;;;;;;;;;5138408;27;20946;-77
2022/01/26 00:55:16;;;;;;;7.57;4.23;;;-2.20;99.90;;;;;;5136585;27;20497;-77
2022/01/26 00:57:42;;;;;;;8.93;4.33;;;;;;;;;;5138124;27;20447;-77
2022/01/26 01:00:28;;;;;;;8.67;4.23;;;-2.10;99.90;;;;;;5138285;27;20467;-78
2022/01/26 01:02:55;;;;;;;7.80;4.50;;;-2.20;99.90;;;;;;5138621;27;20381;-77
2022/01/26 01:05:34;;;;;;;9.90;5.33;;;-2.00;99.90;;;;;;5136807;27;20269;-78
2022/01/26 01:08:07;;;;;;;8.50;4.83;;;-2.20;99.90;;;;;;5138464;27;20515;-78
2022/01/26 01:10:33;;;;;;;5.30;3.90;;;-2.10;99.90;;;;;;5137000;27;20202;-77
2022/01/26 01:13:00;;;;;;;8.23;4.50;;;-1.70;99.90;;;;;;5137891;27;20473;-78
2022/01/26 01:15:28;;;;;;;6.57;4.47;;;-2.20;99.90;;;;;;5136296;27;20180;-77
2022/01/26 01:18:06;;;;;;;8.37;4.80;;;;;;;;;;5137443;27;20428;-77
2022/01/26 01:23:37;;;;;;;9.00;4.50;;;;;;;;;;5137846;27;20399;-77
2022/01/26 01:31:06;;;;;;;7.13;4.50;;;-2.30;99.90;;;;;;5139579;27;20411;-77
2022/01/26 01:33:38;;;;;;;9.30;4.70;;;;;;;;;;5137900;27;20624;-77
2022/01/26 01:36:05;;;;;;;6.97;4.10;;;;;;;;;;5137041;27;20385;-77
2022/01/26 01:38:33;;;;;;;7.40;3.90;;;-2.50;99.90;;;;;;5135995;27;20416;-77
2022/01/26 01:40:59;;;;;;;6.67;3.87;;;;;;;;;;5136079;27;20459;-77
2022/01/26 01:43:25;;;;;;;6.83;4.07;;;-2.40;99.90;;;;;;5137157;27;20936;-77
2022/01/26 01:45:52;;;;;;;7.30;4.00;;;-2.40;99.90;;;;;;5135692;27;20553;-77
2022/01/26 01:48:27;;;;;;;5.60;3.67;;;-2.40;99.90;;;;;;5136858;27;20562;-77
2022/01/26 01:50:55;;;;;;;6.07;3.77;;;;;;;;;;5137100;27;20399;-77
2022/01/26 01:53:29;;;;;;;4.83;3.03;;;-2.30;99.90;;;;;;5136440;27;20413;-77
2022/01/26 01:55:55;;;;;;;5.53;3.23;;;;;;;;;;5135552;27;20419;-77
2022/01/26 01:58:21;;;;;;;5.80;3.03;;;-2.30;99.90;;;;;;5136491;27;20438;-78
2022/01/26 02:00:47;;;;;;;5.47;3.43;;;-2.30;99.90;;;;;;5135888;27;20472;-77
2022/01/26 02:03:13;;;;;;;4.07;2.60;;;;;;;;;;5135493;27;20187;-77
2022/01/26 02:05:38;;;;;;;6.27;3.10;;;-2.30;99.90;;;;;;5136643;27;20170;-77
2022/01/26 02:08:05;;;;;;;6.20;3.30;;;;;;;;;;5136676;27;20485;-77
2022/01/26 02:10:33;;;;;;;6.13;3.27;;;;;;;;;;5137157;27;20171;-77
2022/01/26 02:13:02;;;;;;;4.03;2.53;;;-2.40;99.90;;;;;;5136707;27;20975;-77
2022/01/26 02:16:20;;;;;;;5.93;3.10;;;;;;;;;;5135114;27;20435;-77
2022/01/26 02:19:25;;;;;;;3.93;2.73;;;;;;;;;;5132892;27;20467;-77
2022/01/26 02:21:31;;;;;;;5.90;3.50;;;;;;;;;;5133142;27;20555;-78
2022/01/26 03:02:11;;;;;;;4.73;3.40;;;-2.90;99.90;;;;;;5135304;27;20173;-77
2022/01/26 03:04:44;;;;;;;4.77;3.37;;;;;;;;;;5134627;27;20432;-77
2022/01/26 03:10:02;;;;;;;6.03;4.17;;;-3.00;99.90;;;;;;5135607;27;20455;-77
2022/01/26 03:12:37;;;;;;;5.47;3.27;;;-3.10;99.90;;;;;;5133966;27;20413;-77
2022/01/26 03:15:12;;;;;;;4.67;3.60;;;-2.90;99.90;;;;;;5133496;27;20499;-77
2022/01/26 03:18:00;;;;;;;6.30;3.77;;;-3.00;99.90;;;;;;5133818;27;20461;-77
2022/01/26 03:20:24;;;;;;;4.60;3.23;;;;;;;;;;5134848;27;20761;-77
2022/01/26 03:28:27;;;;;;;5.60;3.37;;;-3.20;99.90;;;;;;5134918;27;20426;-77
2022/01/26 03:36:13;;;;;;;7.50;3.87;;;-3.20;99.90;;;;;;5142448;27;20756;-77
2022/01/26 03:38:43;;;;;;;6.37;3.47;;;-3.20;99.90;;;;;;5134650;27;20921;-77
2022/01/26 03:41:31;;;;;;;6.07;3.63;;;-3.30;99.90;;;;;;5133280;27;20812;-77
2022/01/26 03:43:57;;;;;;;6.43;3.33;;;-3.20;99.90;;;;;;5133166;27;20411;-77
2022/01/26 03:46:24;;;;;;;6.23;3.93;;;-3.20;99.90;;;;;;5134265;27;20427;-77
2022/01/26 03:48:49;;;;;;;4.17;3.20;;;-3.30;99.90;;;;;;5132958;27;20424;-77
2022/01/26 03:51:16;;;;;;;9.87;4.53;;;-3.30;99.90;;;;;;5134785;27;20744;-77
2022/01/26 03:53:41;;;;;;;6.33;3.93;;;-3.40;99.90;;;;;;5135146;27;20234;-77
2022/01/26 03:56:07;;;;;;;12.77;4.23;;;-3.30;99.90;;;;;;5132688;27;20413;-77
2022/01/26 03:58:33;;;;;;;6.20;4.20;;;;;;;;;;5132985;27;20234;-77
2022/01/26 04:00:59;;;;;;;9.90;4.73;;;-3.40;99.90;;;;;;5134404;27;20209;-77
2022/01/26 04:03:24;;;;;;;5.23;3.63;;;-3.40;99.90;;;;;;5133011;27;20913;-77
2022/01/26 04:05:50;;;;;;;6.50;3.87;;;-3.40;99.90;;;;;;5132768;28;20183;-77
2022/01/26 04:08:25;;;;;;;6.83;3.83;;;;;;;;;;5134113;28;20239;-77
2022/01/26 04:13:31;;;;;;;5.20;3.33;;;-3.60;99.90;;;;;;5134456;28;20920;-77
2022/01/26 04:15:57;;;;;;;6.83;3.70;;;-3.50;99.90;;;;;;5134776;27;20409;-77
2022/01/26 04:18:29;;;;;;;6.07;4.27;;;-3.60;99.90;;;;;;5136967;27;20550;-77
2022/01/26 04:20:58;;;;;;;8.07;3.97;;;;;;;;;;5138670;27;20249;-77
2022/01/26 04:25:51;;;;;;;7.47;3.87;;;-3.80;99.90;;;;;;5138450;27;20435;-77
2022/01/26 04:28:24;;;;;;;6.17;3.97;;;-3.60;99.90;;;;;;5136826;27;20207;-77
2022/01/26 04:30:50;;;;;;;6.40;3.80;;;-3.60;99.90;;;;;;5136900;27;20407;-77
2022/01/26 04:33:16;;;;;;;5.40;3.67;;;;;;;;;;5136675;27;20414;-77
2022/01/26 04:35:45;;;;;;;9.03;3.80;;;;;;;;;;5137725;27;20400;-77
2022/01/26 04:38:21;;;;;;;5.57;3.73;;;-3.60;99.90;;;;;;5137845;27;20423;-77
2022/01/26 04:41:10;;;;;;;7.17;4.30;;;;;;;;;;5136553;27;20954;-77
2022/01/26 04:43:37;;;;;;;5.97;3.73;;;;;;;;;;5137904;27;20461;-77
2022/01/26 04:46:05;;;;;;;5.27;3.53;;;-3.70;99.90;;;;;;5137590;27;20897;-77
2022/01/26 04:48:31;;;;;;;5.73;3.63;;;;;;;;;;5136498;27;20435;-77
2022/01/26 04:50:57;;;;;;;6.10;3.87;;;;;;;;;;5136710;27;20418;-77
2022/01/26 04:53:23;;;;;;;5.10;3.00;;;;;;;;;;5137636;27;21018;-77
2022/01/26 04:55:49;;;;;;;6.07;3.40;;;;;;;;;;5137461;27;20164;-77
2022/01/26 04:58:15;;;;;;;5.57;3.63;;;-3.80;99.90;;;;;;5138188;27;20193;-77
2022/01/26 05:00:40;;;;;;;8.60;3.83;;;-3.70;99.90;;;;;;5137708;27;20554;-77
2022/01/26 05:03:06;;;;;;;5.77;4.20;;;;;;;;;;5137833;27;20170;-77
2022/01/26 05:05:32;;;;;;;7.53;4.17;;;;;;;;;;5136225;27;20236;-77
2022/01/26 05:07:58;;;;;;;7.30;3.90;;;;;;;;;;5138168;27;20509;-77
2022/01/26 05:10:24;;;;;;;9.93;5.73;;;;;;;;;;5137563;27;20624;-77
2022/01/26 05:12:50;;;;;;;12.10;6.93;;;-3.70;99.90;;;;;;5137810;27;20744;-77
2022/01/26 05:15:18;;;;;;;14.93;8.37;;;-3.80;99.90;;;;;;5137375;27;20446;-77
2022/01/26 05:17:44;;;;;;;14.63;9.00;;;;;;;;;;5137508;27;20241;-77
2022/01/26 05:20:10;;;;;;;16.33;8.27;;;-3.90;99.90;;;;;;5137561;27;20462;-77
2022/01/26 05:22:39;;;;;;;10.57;6.47;;;-3.70;99.90;;;;;;5137358;27;20444;-77
2022/01/26 05:25:05;;;;;;;3.90;2.83;;;;;;;;;;5137261;27;20408;-77
2022/01/26 05:27:31;;;;;;;4.27;2.90;;;;;;;;;;5136614;27;20424;-77
2022/01/26 05:29:57;;;;;;;3.97;2.37;;;-3.50;99.90;;;;;;5135943;27;20835;-77
2022/01/26 05:32:23;;;;;;;3.73;2.43;;;;;;;;;;5137339;27;20178;-77
2022/01/26 05:34:48;;;;;;;5.03;2.47;;;-3.50;99.90;;;;;;5137516;27;20182;-77
2022/01/26 05:37:14;;;;;;;5.23;2.73;;;-3.60;99.90;;;;;;5137800;27;20197;-77
2022/01/26 05:39:39;;;;;;;4.13;2.40;;;-3.50;99.90;;;;;;5139201;27;20684;-77
2022/01/26 05:42:09;;;;;;;3.13;1.87;;;-3.50;99.90;;;;;;5136195;27;20175;-77
2022/01/26 05:44:35;;;;;;;5.03;3.20;;;-3.50;99.90;;;;;;5137126;27;20165;-77
2022/01/26 05:47:01;;;;;;;2.40;1.80;;;;;;;;;;5135853;27;20441;-78
2022/01/26 05:49:27;;;;;;;4.70;2.50;;;;;;;;;;5135805;27;20210;-77
2022/01/26 05:51:53;;;;;;;4.33;2.67;;;-3.70;99.90;;;;;;5135740;27;21121;-77
2022/01/26 05:54:19;;;;;;;2.53;2.33;;;;;;;;;;5135331;27;20411;-77
2022/01/26 05:56:47;;;;;;;4.53;2.50;;;;;;;;;;5135406;27;20436;-77
2022/01/26 05:59:18;;;;;;;3.50;2.50;;;-3.50;99.90;;;;;;5136840;27;20435;-77
2022/01/26 06:01:43;;;;;;;3.70;2.67;;;-3.70;99.90;;;;;;5136571;27;20444;-77
2022/01/26 06:04:09;;;;;;;7.57;2.60;;;;;;;;;;5136371;27;20401;-77
2022/01/26 06:06:35;;;;;;;3.50;2.43;;;;;;;;;;5136455;27;20193;-77
2022/01/26 06:09:01;;;;;;;4.40;3.53;;;;;;;;;;5135397;27;20775;-78
2022/01/26 06:11:27;;;;;;;5.17;2.90;;;-3.80;99.90;;;;;;5136483;27;20402;-77
2022/01/26 06:13:55;;;;;;;2.80;2.03;;;;;;;;;;5134789;27;20416;-77
2022/01/26 06:16:21;;;;;;;4.87;2.63;;;;;;;;;;5135113;27;20209;-77
2022/01/26 06:18:47;;;;;;;4.33;2.63;;;;;;;;;;5136165;27;20426;-77
2022/01/26 06:21:13;;;;;;;3.43;2.57;;;;;;;;;;5134734;27;20456;-77
2022/01/26 06:23:39;;;;;;;3.67;2.40;;;;;;;;;;5136037;27;20173;-77
2022/01/26 06:26:04;;;;;;;4.50;2.63;;;-3.60;99.90;;;;;;5134743;27;20441;-77
2022/01/26 06:28:30;;;;;;;4.27;2.63;;;;;;;;;;5136012;27;20496;-77
2022/01/26 06:30:59;;;;;;;8.40;4.60;;;-3.50;99.90;;;;;;5136159;27;20182;-77
2022/01/26 06:33:26;;;;;;;10.23;4.53;;;-3.40;99.90;;;;;;5134583;27;20427;-77
2022/01/26 06:35:52;;;;;;;8.37;4.13;;;;;;;;;;5133657;27;20427;-77
2022/01/26 06:38:18;;;;;;;6.73;3.00;;;;;;;;;;5133973;27;20438;-77
2022/01/26 06:40:44;;;;;;;4.97;3.03;;;;;;;;;;5134017;27;20451;-77
2022/01/26 06:43:14;;;;;;;3.50;2.40;;;;;;;;;;5135069;27;20401;-77
2022/01/26 06:46:05;;;;;;;5.03;2.60;;;;;;;;;;5133830;27;20408;-77
2022/01/26 06:51:12;;;;;;;7.10;2.70;;;-3.60;99.90;;;;;;5136296;27;20911;-77
2022/01/26 06:53:38;;;;;;;3.10;2.57;;;;;;;;;;5135567;27;20408;-77
2022/01/26 06:56:04;;;;;;;4.47;2.87;;;-3.60;99.90;;;;;;5135733;27;20500;-77
2022/01/26 06:58:30;;;;;;;4.30;2.67;;;;;;;;;;5136306;27;20514;-77
2022/01/26 07:00:57;;;;;;;3.33;2.40;;;-3.70;99.90;;;;;;5134598;27;20212;-77
2022/01/26 07:03:23;;;;;;;10.37;2.80;;;;;;;;;;5135518;27;20420;-77
2022/01/26 07:05:48;;;;;;;5.97;2.73;;;-3.60;99.90;;;;;;5134605;27;20412;-77
2022/01/26 07:08:14;;;;;;;3.53;2.40;;;;;;;;;;5136244;27;20775;-77
2022/01/26 07:10:41;;;;;;;6.93;3.80;;;;;;;;;;5135189;27;20185;-77
2022/01/26 07:13:08;;;;;;;5.53;3.47;;;-3.30;99.90;;;;;;5136819;27;20175;-78
2022/01/26 07:23:33;;;;;;;4.77;2.90;;;;;;;;;;5135124;27;20404;-77
2022/01/26 07:25:58;;;;;;;4.73;3.47;;;-3.30;99.90;;;;;;5134818;27;20403;-77
2022/01/26 07:28:24;;;;;;;7.13;3.50;;;-3.40;99.90;;;;;;5134599;27;20515;-77
2022/01/26 07:30:50;;;;;;;6.57;3.50;;;-3.50;99.90;;;;;;5133839;27;20625;-77
2022/01/26 07:33:16;;;;;;;4.73;3.03;;;;;;;;;;5133700;27;20262;-78
2022/01/26 07:35:42;;;;;;;5.80;3.10;;;-3.40;99.90;;;;;;5134733;27;20491;-77
2022/01/26 07:38:08;;;;;;;5.50;3.40;;;;;;;;;;5134238;27;20204;-77
2022/01/26 07:40:34;;;;;;;5.17;3.40;;;;;;;;;;5134833;27;20634;-77
2022/01/26 07:43:00;;;;;;;4.97;3.47;;;-3.70;99.90;;;;;;5133449;27;20903;-77
2022/01/26 07:45:26;;;;;;;2.53;2.30;;;;;;;;;;5136243;27;20418;-77
2022/01/26 07:47:54;;;;;;;3.77;2.83;;;;;;;;;;5133473;27;20191;-77
2022/01/26 07:50:21;;;;;;;6.60;2.47;;;;;;;;;;5133176;27;20931;-77
2022/01/26 07:52:47;;;;;;;9.03;3.77;;;;;;;;;;5134745;27;20415;-77
2022/01/26 07:55:17;;;;;;;3.97;2.67;;;-3.20;99.90;;;;;;5133208;27;20420;-77
2022/01/26 07:57:48;;;;;;;4.27;2.80;;;-3.10;99.90;;;;;;5134751;27;20442;-78
2022/01/26 08:00:14;;;;;;;4.63;2.93;;;;;;;;;;5135883;27;20478;-78
2022/01/26 08:02:45;;;;;;;7.77;3.43;;;-2.90;99.90;;;;;;5119436;27;20469;-78
2022/01/26 08:05:12;;;;;;;5.43;3.27;;;-2.80;99.90;;;;;;5137748;27;20733;-78
2022/01/26 08:07:38;;;;;;;5.70;3.40;;;;;;;;;;5137951;28;20787;-78
2022/01/26 08:10:06;;;;;;;5.63;2.93;;;-2.50;99.90;;;;;;5138189;27;20400;-77
2022/01/26 08:12:32;;;;;;;5.57;3.37;;;;;;;;;;5137342;28;20442;-78
2022/01/26 08:14:58;;;;;;;3.03;2.40;;;;;;;;;;5137471;27;20773;-78
2022/01/26 08:17:24;;;;;;;4.03;2.73;;;-1.80;99.90;;;;;;5138529;27;20426;-79
2022/01/26 08:19:55;;;;;;;6.27;3.40;;;;;;;;;;5139472;28;20921;-78
2022/01/26 08:22:23;;;;;;;8.77;4.00;;;-0.70;99.90;;;;;;5139819;27;20151;-79
2022/01/26 08:24:50;;;;;;;11.60;5.03;;;0.70;99.90;;;;;;5138145;28;20520;-78
2022/01/26 08:27:18;;;;;;;10.30;4.73;;;-0.10;99.90;;;;;;5139250;28;20432;-79
2022/01/26 08:29:48;;;;;;;6.00;3.87;;;0.30;99.90;;;;;;5139126;28;20897;-78
2022/01/26 08:32:14;;;;;;;5.90;3.77;;;0.40;99.90;;;;;;5139291;28;20408;-79
2022/01/26 08:34:41;;;;;;;7.97;4.17;;;0.70;99.90;;;;;;5139122;28;20545;-79
2022/01/26 08:37:07;;;;;;;6.60;3.87;;;0.80;99.90;;;;;;5140194;28;20191;-79
2022/01/26 08:39:34;;;;;;;6.60;3.80;;;1.20;99.90;;;;;;5140904;27;20182;-79
2022/01/26 08:42:00;;;;;;;7.50;4.47;;;1.40;99.90;;;;;;5139476;28;20171;-79
2022/01/26 08:44:26;;;;;;;9.10;5.37;;;1.40;99.90;;;;;;5139551;28;20190;-79
2022/01/26 08:46:53;;;;;;;10.03;5.60;;;2.40;99.90;;;;;;5140947;28;20187;-79
2022/01/26 08:49:18;;;;;;;9.10;5.03;;;2.50;99.90;;;;;;5141209;28;20163;-79
2022/01/26 08:51:44;;;;;;;9.83;6.27;;;2.90;99.90;;;;;;5141465;28;20180;-80
2022/01/26 08:54:11;;;;;;;10.03;5.67;;;3.10;99.90;;;;;;5141191;28;20188;-79
2022/01/26 08:56:37;;;;;;;7.87;4.47;;;3.20;99.90;;;;;;5140680;28;20205;-79
2022/01/26 08:59:03;;;;;;;6.43;4.30;;;3.30;99.90;;;;;;5147847;28;20197;-79
2022/01/26 09:01:29;;;;;;;7.00;4.90;;;3.40;99.90;;;;;;5151637;27;20210;-79
2022/01/26 09:03:54;;;;;;;7.23;4.23;;;3.70;99.90;;;;;;5147357;27;20719;-80
2022/01/26 09:06:20;;;;;;;8.53;4.30;;;3.80;99.90;;;;;;5146316;27;20283;-79
2022/01/26 09:08:51;;;;;;;6.53;4.50;;;3.30;99.90;;;;;;5146579;27;20182;-80
2022/01/26 09:11:21;;;;;;;5.97;3.77;;;3.30;99.90;;;;;;5145684;27;20171;-80
2022/01/26 09:13:51;;;;;;;5.93;3.97;;;3.20;99.90;;;;;;5144452;27;20182;-79
2022/01/26 09:16:18;;;;;;;6.27;4.40;;;3.10;99.90;;;;;;5143553;27;20174;-80
2022/01/26 09:18:50;;;;;;;7.47;4.07;;;3.40;99.90;;;;;;5144502;27;20213;-80
2022/01/26 09:21:17;;;;;;;6.00;3.83;;;3.60;99.90;;;;;;5144807;27;20297;-80
2022/01/26 09:23:43;;;;;;;5.10;3.43;;;3.70;99.90;;;;;;5146132;27;20175;-79
2022/01/26 09:26:09;;;;;;;5.77;3.83;;;4.00;99.90;;;;;;5154918;27;20197;-79
2022/01/26 09:28:34;;;;;;;6.07;3.50;;;4.10;99.90;;;;;;5151789;27;20185;-79
2022/01/26 09:31:00;;;;;;;4.67;3.60;;;4.30;99.90;;;;;;5153639;27;20246;-79
2022/01/26 09:33:26;;;;;;;7.57;4.10;;;4.70;99.90;;;;;;5150191;27;20188;-80
2022/01/26 09:35:51;;;;;;;5.90;3.40;;;4.70;99.90;;;;;;5145238;27;20244;-79
2022/01/26 09:38:17;;;;;;;4.20;2.80;;;4.70;99.90;;;;;;5144223;27;20187;-80
2022/01/26 09:40:45;;;;;;;6.57;3.13;;;5.00;99.90;;;;;;5142118;27;20688;-80
2022/01/26 09:43:11;;;;;;;7.53;3.10;;;5.20;99.90;;;;;;5142529;27;20178;-79
2022/01/26 09:45:37;;;;;;;10.67;3.27;;;5.70;99.90;;;;;;5141640;27;20175;-79
2022/01/26 09:48:04;;;;;;;3.97;2.60;;;6.10;99.90;;;;;;5140579;27;20689;-80
2022/01/26 09:50:32;;;;;;;4.70;2.90;;;6.40;99.90;;;;;;5140911;27;20619;-80
2022/01/26 09:52:58;;;;;;;5.27;3.20;;;6.80;99.90;;;;;;5149780;27;20175;-80
2022/01/26 09:55:26;;;;;;;5.17;2.50;;;7.40;99.90;;;;;;5142359;27;20187;-81
2022/01/26 09:57:58;;;;;;;4.03;2.80;;;7.90;98.00;;;;;;5143896;27;20747;-81
2022/01/26 10:00:25;;;;;;;6.23;4.13;;;8.40;95.30;;;;;;5142038;27;20593;-81
2022/01/26 10:03:02;;;;;;;6.47;2.80;;;8.80;93.90;;;;;;5141643;27;20265;-81
2022/01/26 10:05:45;;;;;;;6.77;4.63;;;9.10;91.10;;;;;;5141849;27;20171;-80
2022/01/26 10:08:26;;;;;;;3.87;3.10;;;9.10;90.80;;;;;;5143352;27;20593;-81
2022/01/26 10:19:00;;;;;;;7.27;5.30;;;9.30;86.50;;;;;;5142645;27;20264;-80
2022/01/26 10:21:26;;;;;;;7.50;6.07;;;9.20;82.60;;;;;;5142664;27;20196;-81
2022/01/26 10:23:54;;;;;;;3.73;2.70;;;9.20;83.70;;;;;;5143006;27;20167;-79
2022/01/26 10:26:20;;;;;;;6.00;3.73;;;9.30;80.20;;;;;;5140582;27;20175;-81
2022/01/26 10:28:47;;;;;;;4.40;3.50;;;9.30;81.10;;;;;;5141145;27;20525;-81
2022/01/26 10:31:16;;;;;;;4.07;2.90;;;9.20;79.30;;;;;;5142258;27;20180;-81
2022/01/26 10:33:52;;;;;;;3.83;2.50;;;9.00;78.50;;;;;;5142001;27;20287;-80
2022/01/26 10:36:18;;;;;;;4.07;2.90;;;8.80;77.60;;;;;;5140488;27;20173;-81
2022/01/26 10:38:44;;;;;;;3.63;2.67;;;8.70;78.70;;;;;;5140858;27;20268;-80
2022/01/26 10:41:22;;;;;;;4.50;3.10;;;9.00;80.20;;;;;;5142143;27;20207;-81
2022/01/26 10:43:49;;;;;;;3.93;2.80;;;9.30;75.80;;;;;;5140357;27;20203;-80
2022/01/26 10:46:26;;;;;;;3.40;2.60;;;9.60;75.80;;;;;;5141771;27;20167;-81
2022/01/26 10:49:06;;;;;;;4.67;2.67;;;9.60;73.70;;;;;;5142068;27;20182;-81
2022/01/26 10:54:36;;;;;;;4.00;3.30;;;10.30;74.60;;;;;;5141951;27;20191;-81
2022/01/26 10:57:09;;;;;;;6.07;2.67;;;10.20;73.80;;;;;;5141285;27;20195;-81
2022/01/26 10:59:37;;;;;;;10.73;5.40;;;10.20;72.40;;;;;;5140853;27;20214;-81
2022/01/26 11:02:08;;;;;;;7.60;4.93;;;10.30;74.60;;;;;;5139255;27;20174;-80
2022/01/26 11:04:35;;;;;;;3.63;3.23;;;10.60;70.80;;;;;;5141393;27;20554;-81
2022/01/26 11:07:03;;;;;;;4.27;3.20;;;10.40;71.00;;;;;;5139516;27;20226;-80
2022/01/26 11:09:31;;;;;;;4.47;2.87;;;10.00;68.50;;;;;;5141657;27;20198;-80
2022/01/26 11:12:06;;;;;;;3.43;2.97;;;10.20;69.50;;;;;;5141038;27;20528;-81
2022/01/26 11:14:47;;;;;;;3.80;2.53;;;10.20;67.60;;;;;;5141168;27;20172;-80
2022/01/26 11:17:36;;;;;;;4.97;2.83;;;10.00;69.00;;;;;;5140073;27;20670;-81
2022/01/26 11:20:20;;;;;;;3.40;3.00;;;10.30;67.80;;;;;;5140471;27;20180;-80
2022/01/26 11:23:02;;;;;;;4.77;2.73;;;10.50;67.60;;;;;;5138635;27;20525;-81
2022/01/26 11:25:30;;;;;;;4.50;2.40;;;10.50;66.90;;;;;;5139337;27;20618;-81
2022/01/26 11:27:57;;;;;;;3.13;2.77;;;10.60;63.80;;;;;;5140404;27;20189;-81
2022/01/26 11:30:27;;;;;;;7.13;4.53;;;10.30;65.20;;;;;;5138974;27;20176;-80
2022/01/26 11:33:23;;;;;;;4.57;3.07;;;10.60;66.70;;;;;;5140414;27;20180;-81
2022/01/26 11:35:51;;;;;;;3.27;2.70;;;10.80;63.40;;;;;;5138571;27;20169;-81
2022/01/26 11:47:22;;;;;;;4.90;3.67;;;10.70;65.30;;;;;;5139313;27;20224;-79
2022/01/26 11:49:51;;;;;;;3.63;3.20;;;10.80;62.40;;;;;;5138863;27;20156;-80
2022/01/26 11:52:29;;;;;;;4.73;3.50;;;10.70;61.10;;;;;;5138356;27;20164;-80
2022/01/26 11:54:58;;;;;;;3.00;2.70;;;10.60;60.90;;;;;;5137985;27;20171;-81
2022/01/26 11:57:47;;;;;;;7.87;5.13;;;10.30;59.70;;;;;;5141826;27;20196;-80
2022/01/26 12:00:19;;;;;;;9.30;5.97;;;10.70;61.70;;;;;;5138637;27;20739;-80
2022/01/26 12:05:18;;;;;;;3.97;2.97;;;11.60;59.20;;;;;;5140023;27;20292;-80
2022/01/26 12:07:54;;;;;;;4.20;3.23;;;11.50;58.00;;;;;;5137559;28;20222;-80
2022/01/26 12:10:27;;;;;;;4.90;3.30;;;11.20;58.50;;;;;;5138438;28;20172;-80
2022/01/26 12:13:05;;;;;;;5.47;4.30;;;11.30;59.30;;;;;;5140132;28;20172;-80
2022/01/26 12:15:42;;;;;;;5.33;3.70;;;11.40;59.00;;;;;;5140240;28;20180;-80
2022/01/26 12:18:23;;;;;;;4.00;3.10;;;11.50;58.80;;;;;;5138949;28;20839;-80
2022/01/26 12:35:17;;;;;;;6.60;4.30;;;11.40;56.90;;;;;;5138015;28;20253;-80
2022/01/26 12:43:11;;;;;;;4.30;2.80;;;11.70;57.30;;;;;;5142622;27;20631;-80
2022/01/26 12:45:37;;;;;;;3.40;2.73;;;11.50;55.10;;;;;;5141889;27;20176;-80
2022/01/26 12:48:08;;;;;;;2.80;2.50;;;11.30;57.00;;;;;;5139888;27;20216;-80
2022/01/26 12:50:34;;;;;;;4.37;3.17;;;11.50;56.10;;;;;;5142235;27;20635;-80
2022/01/26 12:53:01;;;;;;;3.93;3.00;;;11.80;56.40;;;;;;5140716;27;20688;-80
2022/01/26 12:55:33;;;;;;;5.00;3.83;;;11.60;54.90;;;;;;5141900;27;20194;-80
2022/01/26 12:57:59;;;;;;;4.53;3.60;;;11.30;54.70;;;;;;5141807;27;20225;-80
2022/01/26 13:00:36;;;;;;;4.00;3.00;;;11.50;55.00;;;;;;5141293;27;20215;-80
2022/01/26 13:03:09;;;;;;;4.63;2.70;;;11.50;54.10;;;;;;5141680;27;20166;-80
2022/01/26 13:05:35;;;;;;;5.00;3.10;;;11.20;53.90;;;;;;5140527;27;20169;-80
2022/01/26 13:08:05;;;;;;;4.50;2.93;;;10.50;54.90;;;;;;5142751;27;20273;-79
2022/01/26 13:10:32;;;;;;;4.67;3.03;;;10.50;55.40;;;;;;5141395;27;20183;-80
2022/01/26 13:13:16;;;;;;;6.43;4.03;;;9.90;56.60;;;;;;5139973;27;20677;-80
2022/01/26 13:15:48;;;;;;;8.20;4.00;;;9.10;58.20;;;;;;5141239;27;20181;-79
2022/01/26 13:18:30;;;;;;;4.63;2.37;;;8.40;59.60;;;;;;5140266;27;20277;-80
2022/01/26 13:21:13;;;;;;;4.50;2.90;;;7.90;59.40;;;;;;5138827;27;20213;-80
2022/01/26 13:24:07;;;;;;;3.60;2.60;;;7.40;60.70;;;;;;5140968;27;20228;-79
2022/01/26 13:29:36;;;;;;;4.07;2.93;;;7.20;61.30;;;;;;5140552;27;20181;-79
2022/01/26 13:37:47;;;;;;;6.07;4.10;;;6.80;64.00;;;;;;5140326;27;20246;-79
2022/01/26 13:50:52;;;;;;;4.60;3.40;;;6.80;65.00;;;;;;5136813;27;20516;-78
2022/01/26 13:53:21;;;;;;;2.80;2.43;;;6.70;65.10;;;;;;5136997;27;20180;-78
2022/01/26 13:56:01;;;;;;;10.90;5.33;;;6.60;74.70;;;;;;5136777;27;20283;-78
2022/01/26 14:01:00;;;;;;;5.03;3.43;;;;;;;;;;5138661;27;20208;-78
2022/01/26 14:03:29;;;;;;;6.27;3.73;;;6.80;68.40;;;;;;5139293;27;20179;-78
2022/01/26 14:05:55;;;;;;;5.43;3.60;;;;;;;;;;5137780;27;20624;-78
2022/01/26 14:08:21;;;;;;;8.27;4.23;;;;;;;;;;5136707;27;20206;-78
2022/01/26 14:10:48;;;;;;;8.23;5.60;;;6.40;67.80;;;;;;5138526;27;20175;-78
2022/01/26 14:13:19;;;;;;;6.13;4.07;;;6.20;70.70;;;;;;5136329;27;20221;-78
2022/01/26 14:15:48;;;;;;;5.37;4.10;;;;;;;;;;5137634;27;20163;-78
2022/01/26 14:25:56;;;;;;;7.03;3.67;;;6.40;68.60;;;;;;5137284;27;20188;-78
2022/01/26 14:28:28;;;;;;;3.73;2.80;;;6.10;68.10;;;;;;5136787;27;20196;-78
2022/01/26 14:31:09;;;;;;;3.67;3.07;;;6.10;68.60;;;;;;5137285;27;20519;-78
2022/01/26 14:36:23;;;;;;;6.57;3.33;;;;;;;;;;5136748;27;20188;-78
2022/01/26 14:53:17;;;;;;;6.93;3.03;;;;;;;;;;5135241;27;20209;-78
2022/01/26 15:08:46;;;;;;;8.83;4.50;;;5.10;71.00;;;;;;5135547;27;20198;-78
2022/01/26 15:57:46;;;;;;;6.07;3.03;;;;;;;;;;5134762;27;20452;-78
2022/01/26 16:16:36;;;;;;;5.67;3.67;;;3.50;74.60;;;;;;5134225;28;20162;-76
2022/01/26 16:38:59;;;;;;;26.27;11.03;;;3.10;74.80;;;;;;5134047;28;20436;-77
2022/01/26 17:34:28;;;;;;;15.40;8.17;;;1.30;89.10;;;;;;5137819;27;20419;-76
2022/01/26 17:47:15;;;;;;;15.13;9.00;;;0.80;93.90;;;;;;5136633;27;20453;-76
2022/01/26 18:16:39;;;;;;;17.53;7.47;;;0.20;99.90;;;;;;5118083;28;20437;-76
2022/01/26 18:33:02;;;;;;;29.47;14.40;;;0.10;99.90;;;;;;5115257;28;20389;-76
2022/01/26 18:49:20;;;;;;;26.17;14.20;;;;;;;;;;5115677;28;20873;-76
2022/01/26 18:51:55;;;;;;;30.70;16.50;;;-0.10;99.90;;;;;;5115407;28;20386;-76
2022/01/26 18:54:26;;;;;;;27.73;14.33;;;-0.10;99.90;;;;;;5113757;28;20507;-77
2022/01/26 18:56:54;;;;;;;18.23;9.20;;;-0.20;99.90;;;;;;5115296;28;20514;-77
2022/01/26 18:59:22;;;;;;;16.90;9.37;;;-0.10;99.90;;;;;;5115459;28;20437;-78
2022/01/26 19:01:49;;;;;;;20.33;10.70;;;-0.50;99.90;;;;;;5114120;28;20532;-76
2022/01/26 19:04:17;;;;;;;17.57;9.93;;;0.80;99.90;;;;;;5113890;28;20478;-77
2022/01/26 19:06:49;;;;;;;20.93;10.47;;;-0.50;99.90;;;;;;5113382;28;20440;-77
2022/01/26 19:09:18;;;;;;;20.47;11.13;;;-0.80;99.90;;;;;;5114034;28;20408;-77
2022/01/26 19:11:44;;;;;;;22.20;12.57;;;;;;;;;;5114999;28;20422;-77
2022/01/26 19:14:10;;;;;;;25.23;13.33;;;;;;;;;;5114958;28;20432;-77
2022/01/26 19:16:43;;;;;;;22.40;11.83;;;;;;;;;;5116389;28;20464;-77
2022/01/26 19:27:29;;;;;;;25.93;14.20;;;;;;;;;;5115067;28;20510;-77
2022/01/26 19:51:37;;;;;;;30.90;15.37;;;;;;;;;;5114380;28;20424;-77
2022/01/26 19:54:03;;;;;;;32.97;17.50;;;-1.20;99.90;;;;;;5115548;28;20402;-77
2022/01/26 19:56:29;;;;;;;32.97;17.47;;;-1.00;99.90;;;;;;5115604;28;20618;-77
2022/01/26 19:58:55;;;;;;;31.23;16.90;;;;;;;;;;5115290;28;20644;-77
2022/01/26 20:01:21;;;;;;;34.67;17.83;;;-1.20;99.90;;;;;;5118474;28;20199;-77
2022/01/26 20:03:48;;;;;;;32.33;17.13;;;;;;;;;;5115858;28;20184;-77
2022/01/26 20:06:14;;;;;;;28.73;16.67;;;;;;;;;;5116557;28;20815;-77
2022/01/26 20:08:53;;;;;;;30.33;16.83;;;;;;;;;;5116479;28;20677;-81
2022/01/26 20:11:36;;;;;;;31.57;17.20;;;;;;;;;;5116196;28;20394;-76
2022/01/26 20:14:02;;;;;;;28.27;15.93;;;;;;;;;;5116684;28;20420;-77
2022/01/26 20:16:29;;;;;;;28.20;16.77;;;;;;;;;;5118563;28;20425;-77
2022/01/26 20:18:55;;;;;;;27.67;17.10;;;;;;;;;;5122908;28;20898;-77
2022/01/26 20:21:20;;;;;;;31.50;16.33;;;-1.20;99.90;;;;;;5118311;28;20509;-77
2022/01/26 20:23:46;;;;;;;28.97;16.67;;;;;;;;;;5118176;28;20497;-77
2022/01/26 20:26:12;;;;;;;27.40;16.10;;;;;;;;;;5116677;28;20176;-78
2022/01/26 20:28:42;;;;;;;39.03;19.23;;;-1.30;99.90;;;;;;5118190;28;20402;-77
2022/01/26 20:31:17;;;;;;;32.57;18.77;;;-1.20;99.90;;;;;;5116834;28;20585;-77
2022/01/26 20:33:44;;;;;;;33.10;17.53;;;-1.20;99.90;;;;;;5118610;28;20385;-76
2022/01/26 20:36:10;;;;;;;29.13;16.33;;;;;;;;;;5118059;28;20508;-77
2022/01/26 20:38:36;;;;;;;36.80;18.70;;;;;;;;;;5116870;28;20470;-77